Time;durP1;ratioP1;P1;durP2;ratioP2;P2;SDS_P1;SDS_P2;PMS_P1;PMS_P2;Temp;Humidity;BMP_temperature;BMP_pressure;BME280_temperature;BME280_humidity;BME280_pressure;Samples;Min_cycle;Max_cycle;Signal;HPM_P1;HPM_P2
2021/03/09 00:00:58;;;;;;;38.30;22.40;;;6.70;99.90;;;;;;4986794;28;20042;-70
2021/03/09 00:03:23;;;;;;;38.80;22.98;;;6.70;99.90;;;;;;4985696;28;20298;-74
2021/03/09 00:05:49;;;;;;;34.22;21.85;;;6.70;99.90;;;;;;4986956;28;20118;-70
2021/03/09 00:08:15;;;;;;;38.35;23.02;;;6.70;99.90;;;;;;4984727;28;20030;-70
2021/03/09 00:10:41;;;;;;;34.60;22.30;;;6.70;99.90;;;;;;4987170;28;20038;-70
2021/03/09 00:13:06;;;;;;;37.17;23.73;;;6.70;99.90;;;;;;4985463;28;20080;-70
2021/03/09 00:15:32;;;;;;;38.85;22.05;;;6.80;99.90;;;;;;4986773;28;20093;-74
2021/03/09 00:17:58;;;;;;;36.97;23.02;;;6.70;99.90;;;;;;4985421;28;20046;-69
2021/03/09 00:20:23;;;;;;;38.08;23.45;;;6.70;99.90;;;;;;4986660;28;20034;-70
2021/03/09 00:22:49;;;;;;;35.85;23.20;;;6.80;99.90;;;;;;4984041;28;20424;-70
2021/03/09 00:25:15;;;;;;;36.95;21.75;;;6.70;99.90;;;;;;4985874;28;20548;-74
2021/03/09 00:27:40;;;;;;;42.28;22.60;;;6.70;99.90;;;;;;4986228;28;20023;-70
2021/03/09 00:30:07;;;;;;;33.95;23.80;;;6.60;99.90;;;;;;4986297;28;20132;-70
2021/03/09 00:32:33;;;;;;;37.65;22.00;;;6.70;99.90;;;;;;4986299;28;20026;-75
2021/03/09 00:34:58;;;;;;;34.92;21.83;;;6.60;99.90;;;;;;4986278;28;20484;-70
2021/03/09 00:37:24;;;;;;;34.08;22.27;;;6.60;99.90;;;;;;4985880;28;20370;-70
2021/03/09 00:39:50;;;;;;;37.85;22.33;;;6.60;99.90;;;;;;4985858;28;20112;-70
2021/03/09 00:42:15;;;;;;;38.38;22.35;;;6.60;99.90;;;;;;4985875;28;20026;-70
2021/03/09 00:44:41;;;;;;;35.60;22.25;;;6.60;99.90;;;;;;4986129;28;20101;-70
2021/03/09 00:47:07;;;;;;;33.50;23.15;;;6.60;99.90;;;;;;4985992;28;20157;-70
2021/03/09 00:49:33;;;;;;;38.63;24.63;;;6.70;99.90;;;;;;4985653;28;20022;-70
2021/03/09 00:51:59;;;;;;;35.40;23.58;;;6.70;99.90;;;;;;4982734;28;20575;-70
2021/03/09 00:54:24;;;;;;;32.35;20.58;;;6.70;99.90;;;;;;4985414;28;20113;-74
2021/03/09 00:56:50;;;;;;;31.95;21.55;;;6.80;99.90;;;;;;4985667;28;20061;-70
2021/03/09 00:59:16;;;;;;;33.50;21.00;;;6.70;99.90;;;;;;4985582;28;20030;-70
2021/03/09 01:01:41;;;;;;;32.38;20.42;;;6.70;99.90;;;;;;4986187;28;20042;-70
2021/03/09 01:04:07;;;;;;;35.40;21.15;;;6.70;99.90;;;;;;4986350;28;20054;-70
2021/03/09 01:06:33;;;;;;;33.75;20.90;;;6.70;99.90;;;;;;4985458;28;20589;-70
2021/03/09 01:08:58;;;;;;;31.15;20.77;;;6.70;99.90;;;;;;4984849;28;20520;-74
2021/03/09 01:11:24;;;;;;;32.72;20.63;;;6.70;99.90;;;;;;4986200;28;20081;-70
2021/03/09 01:13:49;;;;;;;33.58;21.20;;;6.70;99.90;;;;;;4985014;28;20100;-70
2021/03/09 01:16:15;;;;;;;34.42;20.83;;;6.70;99.90;;;;;;4986004;28;20042;-74
2021/03/09 01:18:41;;;;;;;32.30;21.55;;;6.70;99.90;;;;;;4984561;28;20506;-70
2021/03/09 01:21:06;;;;;;;38.63;21.67;;;6.60;99.90;;;;;;4984891;28;20453;-70
2021/03/09 01:23:32;;;;;;;32.33;20.98;;;6.60;99.90;;;;;;4983778;28;20034;-70
2021/03/09 01:25:58;;;;;;;32.92;19.85;;;6.60;99.90;;;;;;4985188;28;20070;-70
2021/03/09 01:28:24;;;;;;;33.38;18.55;;;6.50;99.90;;;;;;4984747;28;20061;-70
2021/03/09 01:30:49;;;;;;;27.13;17.27;;;6.50;99.90;;;;;;4984119;28;20073;-70
2021/03/09 01:33:15;;;;;;;33.20;19.30;;;6.50;99.90;;;;;;4985858;28;20080;-70
2021/03/09 01:35:41;;;;;;;31.33;19.65;;;6.50;99.90;;;;;;4983138;28;20533;-70
2021/03/09 01:38:06;;;;;;;30.90;20.65;;;6.50;99.90;;;;;;4985715;28;20027;-69
2021/03/09 01:40:32;;;;;;;28.00;18.40;;;6.40;99.90;;;;;;4984727;28;20113;-70
2021/03/09 01:42:58;;;;;;;31.42;19.85;;;6.40;99.90;;;;;;4984727;28;20019;-70
2021/03/09 01:45:24;;;;;;;33.95;21.42;;;6.40;99.90;;;;;;4984999;28;20053;-70
2021/03/09 01:47:50;;;;;;;27.73;18.95;;;6.40;99.90;;;;;;4984252;28;20026;-74
2021/03/09 01:50:18;;;;;;;30.92;19.70;;;6.40;99.90;;;;;;4985651;28;20034;-70
2021/03/09 01:52:47;;;;;;;35.75;20.80;;;6.40;99.90;;;;;;4984090;28;20021;-70
2021/03/09 01:55:13;;;;;;;32.45;19.10;;;6.40;99.90;;;;;;4984801;28;20046;-75
2021/03/09 01:57:41;;;;;;;26.60;18.33;;;6.40;99.90;;;;;;4984233;28;20026;-70
2021/03/09 02:00:09;;;;;;;32.13;19.48;;;6.40;99.90;;;;;;4965140;28;20043;-70
2021/03/09 02:02:34;;;;;;;35.08;20.42;;;6.40;99.90;;;;;;4975112;28;20037;-70
2021/03/09 02:05:03;;;;;;;32.63;19.45;;;6.40;99.90;;;;;;4985145;28;20042;-70
2021/03/09 02:07:29;;;;;;;28.80;18.30;;;6.30;99.90;;;;;;4983679;28;20026;-70
2021/03/09 02:09:55;;;;;;;30.02;18.80;;;6.40;99.90;;;;;;4985674;28;20033;-70
2021/03/09 02:12:27;;;;;;;29.48;19.95;;;6.40;99.90;;;;;;4983791;28;20837;-70
2021/03/09 02:15:16;;;;;;;34.53;19.10;;;6.30;99.90;;;;;;4984892;28;20026;-70
2021/03/09 02:17:59;;;;;;;31.02;20.88;;;6.30;99.90;;;;;;4983881;28;20061;-70
2021/03/09 02:20:44;;;;;;;32.22;21.38;;;6.30;99.90;;;;;;4983068;28;20045;-75
2021/03/09 02:24:10;;;;;;;31.73;20.77;;;6.30;99.90;;;;;;4983332;28;20080;-70
2021/03/09 02:27:02;;;;;;;35.72;20.48;;;6.40;99.90;;;;;;4922438;29;20035;-70
2021/03/09 02:29:40;;;;;;;30.40;19.38;;;6.30;99.90;;;;;;4905645;29;20059;-70
2021/03/09 02:32:10;;;;;;;36.17;21.17;;;6.30;99.90;;;;;;4960786;28;20544;-70
2021/03/09 02:34:40;;;;;;;31.90;21.00;;;6.30;99.90;;;;;;4985555;28;20819;-75
2021/03/09 02:37:10;;;;;;;37.33;23.95;;;6.20;99.90;;;;;;4983348;28;20493;-70
2021/03/09 02:39:40;;;;;;;39.30;23.88;;;6.20;99.90;;;;;;4984859;28;20065;-70
2021/03/09 02:42:06;;;;;;;36.47;24.08;;;6.30;99.90;;;;;;4983453;28;20099;-71
2021/03/09 02:44:35;;;;;;;37.95;22.50;;;6.20;99.90;;;;;;4985238;28;20033;-70
2021/03/09 02:47:01;;;;;;;37.63;22.95;;;6.20;99.90;;;;;;4986840;28;20041;-71
2021/03/09 02:49:29;;;;;;;38.67;23.48;;;6.10;99.90;;;;;;4987274;28;20035;-70
2021/03/09 02:51:56;;;;;;;36.05;22.55;;;6.10;99.90;;;;;;4988691;28;20826;-70
2021/03/09 02:54:23;;;;;;;36.65;21.65;;;6.20;99.90;;;;;;4986845;28;20037;-70
2021/03/09 02:56:50;;;;;;;36.28;22.27;;;6.10;99.90;;;;;;4988360;28;20065;-70
2021/03/09 02:59:18;;;;;;;36.97;23.08;;;6.10;99.90;;;;;;4987549;28;20030;-70
2021/03/09 03:01:47;;;;;;;35.58;23.35;;;6.20;99.90;;;;;;4989003;28;20034;-70
2021/03/09 03:04:15;;;;;;;33.13;20.73;;;6.20;99.90;;;;;;4986890;28;20048;-70
2021/03/09 03:06:43;;;;;;;32.75;21.17;;;6.20;99.90;;;;;;4988157;28;20042;-70
2021/03/09 03:09:11;;;;;;;36.80;24.25;;;6.10;99.90;;;;;;4985720;28;20367;-70
2021/03/09 03:11:40;;;;;;;31.27;20.25;;;6.10;99.90;;;;;;4988785;28;20042;-70
2021/03/09 03:14:07;;;;;;;35.10;22.27;;;6.00;99.90;;;;;;4986453;28;20442;-70
2021/03/09 03:16:36;;;;;;;34.70;23.25;;;6.00;99.90;;;;;;4988055;28;20035;-70
2021/03/09 03:19:02;;;;;;;35.08;23.02;;;6.00;99.90;;;;;;4986082;28;20026;-70
2021/03/09 03:21:29;;;;;;;36.33;21.73;;;6.00;99.90;;;;;;4987207;28;20057;-70
2021/03/09 03:24:06;;;;;;;35.42;21.77;;;6.00;99.90;;;;;;4986230;28;20026;-70
2021/03/09 03:26:35;;;;;;;35.63;21.75;;;6.00;99.90;;;;;;4988072;28;20474;-70
2021/03/09 03:29:04;;;;;;;36.75;22.15;;;6.00;99.90;;;;;;4986437;28;20036;-70
2021/03/09 03:31:30;;;;;;;36.63;23.23;;;6.00;99.90;;;;;;4988158;28;20041;-74
2021/03/09 03:33:56;;;;;;;35.10;21.92;;;6.00;99.90;;;;;;4986148;28;20390;-70
2021/03/09 03:36:22;;;;;;;34.53;21.60;;;6.00;99.90;;;;;;4987960;28;20041;-70
2021/03/09 03:38:48;;;;;;;33.05;21.50;;;5.90;99.90;;;;;;4985956;28;20081;-70
2021/03/09 03:41:14;;;;;;;32.60;21.02;;;5.90;99.90;;;;;;4987237;28;20069;-70
2021/03/09 03:43:40;;;;;;;37.22;24.98;;;5.90;99.90;;;;;;4987278;28;20525;-70
2021/03/09 03:46:07;;;;;;;39.38;22.02;;;5.90;99.90;;;;;;4986641;28;20034;-70
2021/03/09 03:48:35;;;;;;;39.97;22.27;;;5.90;99.90;;;;;;4986954;28;20494;-70
2021/03/09 03:51:02;;;;;;;38.70;24.30;;;5.90;99.90;;;;;;4986071;28;20026;-70
2021/03/09 03:53:39;;;;;;;36.38;23.85;;;5.90;99.90;;;;;;4986193;28;20030;-70
2021/03/09 03:56:16;;;;;;;39.13;24.02;;;5.90;99.90;;;;;;4986226;28;20050;-70
2021/03/09 03:58:48;;;;;;;45.50;22.70;;;5.90;99.90;;;;;;4986292;28;20386;-70
2021/03/09 04:01:15;;;;;;;34.22;23.65;;;5.80;99.90;;;;;;4969352;28;20042;-70
2021/03/09 04:03:41;;;;;;;35.47;22.13;;;5.90;99.90;;;;;;4986942;28;20046;-70
2021/03/09 04:06:09;;;;;;;35.08;22.90;;;5.90;99.90;;;;;;4985724;28;20057;-70
2021/03/09 04:08:38;;;;;;;39.63;24.05;;;5.90;99.90;;;;;;4986858;28;20027;-70
2021/03/09 04:11:05;;;;;;;34.35;23.77;;;5.90;99.90;;;;;;4985951;28;20030;-75
2021/03/09 04:13:37;;;;;;;39.90;25.33;;;5.90;99.90;;;;;;4986125;28;20429;-70
2021/03/09 04:16:04;;;;;;;38.42;24.30;;;6.00;99.90;;;;;;4985637;28;20061;-70
2021/03/09 04:18:31;;;;;;;41.92;23.20;;;6.00;99.90;;;;;;4986718;28;20113;-70
2021/03/09 04:20:58;;;;;;;39.03;24.10;;;6.00;99.90;;;;;;4985827;28;20045;-70
2021/03/09 04:23:26;;;;;;;35.95;22.75;;;6.00;99.90;;;;;;4986130;28;20032;-70
2021/03/09 04:25:53;;;;;;;37.88;24.70;;;6.00;99.90;;;;;;4984922;28;20034;-70
2021/03/09 04:28:19;;;;;;;34.90;21.90;;;5.90;99.90;;;;;;4985118;28;20037;-70
2021/03/09 04:30:45;;;;;;;36.35;23.27;;;5.90;99.90;;;;;;4985803;28;20026;-70
2021/03/09 04:33:11;;;;;;;35.53;23.17;;;5.90;99.90;;;;;;4984222;28;20124;-70
2021/03/09 04:35:37;;;;;;;34.47;23.05;;;5.90;99.90;;;;;;4986699;28;20140;-75
2021/03/09 04:38:03;;;;;;;38.20;24.70;;;5.90;99.90;;;;;;4968220;28;20438;-70
2021/03/09 04:40:30;;;;;;;37.35;22.92;;;5.90;99.90;;;;;;4985397;28;20088;-70
2021/03/09 04:42:56;;;;;;;39.45;23.63;;;5.80;99.90;;;;;;4986482;28;20038;-70
2021/03/09 04:45:22;;;;;;;37.80;23.80;;;5.90;99.90;;;;;;4985111;28;20042;-70
2021/03/09 04:47:48;;;;;;;38.03;25.13;;;5.90;99.90;;;;;;4985285;28;20041;-71
2021/03/09 04:50:16;;;;;;;33.13;24.10;;;5.90;99.90;;;;;;4984962;28;20034;-70
2021/03/09 04:52:50;;;;;;;36.22;24.35;;;5.80;99.90;;;;;;4985130;28;20540;-70
2021/03/09 04:55:20;;;;;;;37.97;24.75;;;6.00;99.90;;;;;;4985637;28;20053;-70
2021/03/09 04:57:46;;;;;;;41.25;24.42;;;6.00;99.90;;;;;;4984316;28;20030;-75
2021/03/09 05:00:15;;;;;;;39.72;24.38;;;5.90;99.90;;;;;;4986099;28;20038;-70
2021/03/09 05:02:45;;;;;;;42.78;24.95;;;5.90;99.90;;;;;;4983834;28;20267;-70
2021/03/09 05:05:12;;;;;;;39.30;26.50;;;5.90;99.90;;;;;;4985262;28;20038;-70
2021/03/09 05:07:38;;;;;;;41.63;25.00;;;5.80;99.90;;;;;;4984047;28;20026;-70
2021/03/09 05:10:05;;;;;;;41.13;25.02;;;5.80;99.90;;;;;;4985714;28;20030;-70
2021/03/09 05:12:31;;;;;;;41.60;27.15;;;5.70;99.90;;;;;;4984833;28;20382;-70
2021/03/09 05:14:57;;;;;;;40.53;25.42;;;5.70;99.90;;;;;;4986276;28;20029;-70
2021/03/09 05:17:22;;;;;;;41.80;24.77;;;5.80;99.90;;;;;;4984155;28;20037;-70
2021/03/09 05:19:48;;;;;;;36.92;25.88;;;5.80;99.90;;;;;;4986458;28;20036;-74
2021/03/09 05:22:14;;;;;;;40.00;27.08;;;5.90;99.90;;;;;;4983914;28;20030;-70
2021/03/09 05:24:40;;;;;;;40.97;27.63;;;5.90;99.90;;;;;;4986122;28;20426;-70
2021/03/09 05:27:05;;;;;;;38.90;24.77;;;5.90;99.90;;;;;;4984111;28;20116;-70
2021/03/09 05:29:31;;;;;;;41.88;25.23;;;5.80;99.90;;;;;;4985787;28;20023;-70
2021/03/09 05:31:57;;;;;;;35.60;24.00;;;5.90;99.90;;;;;;4984082;28;20269;-70
2021/03/09 05:34:22;;;;;;;40.10;25.95;;;5.80;99.90;;;;;;4985652;28;20023;-70
2021/03/09 05:36:48;;;;;;;42.88;26.70;;;5.80;99.90;;;;;;4984578;28;20038;-71
2021/03/09 05:39:14;;;;;;;40.38;25.83;;;5.80;99.90;;;;;;4985382;28;20049;-70
2021/03/09 05:41:40;;;;;;;37.28;25.38;;;5.80;99.90;;;;;;4985657;28;20377;-70
2021/03/09 05:44:06;;;;;;;36.15;24.92;;;5.90;99.90;;;;;;4984158;28;20022;-70
2021/03/09 05:46:32;;;;;;;40.95;27.13;;;5.80;99.90;;;;;;4985034;28;20073;-70
2021/03/09 05:48:58;;;;;;;40.65;27.42;;;5.90;99.90;;;;;;4984187;28;20058;-70
2021/03/09 05:51:24;;;;;;;43.28;27.27;;;5.80;99.90;;;;;;4985659;28;20103;-70
2021/03/09 05:53:50;;;;;;;43.78;27.40;;;5.90;99.90;;;;;;4984082;28;20385;-70
2021/03/09 05:56:16;;;;;;;40.22;26.05;;;5.90;99.90;;;;;;4985492;28;20061;-70
2021/03/09 05:58:42;;;;;;;44.28;24.40;;;5.80;99.90;;;;;;4983884;28;20038;-70
2021/03/09 06:01:08;;;;;;;42.80;25.73;;;5.70;99.90;;;;;;4984636;28;20189;-70
2021/03/09 06:03:33;;;;;;;40.13;25.77;;;5.80;99.90;;;;;;4985147;28;20220;-70
2021/03/09 06:05:59;;;;;;;40.63;25.92;;;5.70;99.90;;;;;;4983853;28;20034;-70
2021/03/09 06:08:25;;;;;;;42.08;25.02;;;5.70;99.90;;;;;;4985407;28;20045;-70
2021/03/09 06:11:10;;;;;;;46.25;25.45;;;5.60;99.90;;;;;;4977633;28;20087;-70
2021/03/09 06:13:36;;;;;;;38.45;25.33;;;5.60;99.90;;;;;;4977370;28;20092;-70
2021/03/09 06:16:01;;;;;;;44.65;26.83;;;5.60;99.90;;;;;;4978613;28;20042;-70
2021/03/09 06:18:27;;;;;;;41.58;27.08;;;5.50;99.90;;;;;;4976962;28;20042;-70
2021/03/09 06:21:13;;;;;;;42.92;26.60;;;5.50;99.90;;;;;;4978716;28;20039;-70
2021/03/09 06:23:40;;;;;;;48.22;26.98;;;5.50;99.90;;;;;;4985373;28;20472;-70
2021/03/09 06:26:35;;;;;;;46.05;27.33;;;5.40;99.90;;;;;;4982318;28;20655;-70
2021/03/09 06:29:06;;;;;;;45.38;25.85;;;5.40;99.90;;;;;;4980199;28;20027;-75
2021/03/09 06:31:32;;;;;;;46.25;25.42;;;5.40;99.90;;;;;;4984357;28;20537;-70
2021/03/09 06:34:25;;;;;;;47.65;27.60;;;5.30;99.90;;;;;;4979088;28;20041;-70
2021/03/09 06:37:12;;;;;;;41.47;25.20;;;5.20;99.90;;;;;;4974244;28;20085;-75
2021/03/09 06:39:58;;;;;;;39.45;24.15;;;5.20;99.90;;;;;;4981500;28;20062;-70
2021/03/09 06:42:26;;;;;;;39.92;28.08;;;5.10;99.90;;;;;;4983582;28;20528;-70
2021/03/09 06:44:56;;;;;;;45.55;27.95;;;5.20;99.90;;;;;;4980609;28;20026;-70
2021/03/09 06:47:33;;;;;;;48.03;25.15;;;5.10;99.90;;;;;;4976976;28;20065;-70
2021/03/09 06:49:59;;;;;;;43.40;27.23;;;5.10;99.90;;;;;;4982596;28;20065;-70
2021/03/09 06:52:25;;;;;;;52.20;28.60;;;5.10;99.90;;;;;;4980787;28;20034;-70
2021/03/09 06:54:54;;;;;;;59.75;28.98;;;5.10;99.90;;;;;;4979679;28;20027;-70
2021/03/09 06:57:20;;;;;;;45.08;27.42;;;5.10;99.90;;;;;;4978024;28;20030;-70
2021/03/09 06:59:49;;;;;;;45.38;28.10;;;5.00;99.90;;;;;;4981265;28;20038;-70
2021/03/09 07:02:17;;;;;;;47.53;28.52;;;5.10;99.90;;;;;;4981085;28;20575;-75
2021/03/09 07:04:47;;;;;;;47.83;28.98;;;5.10;99.90;;;;;;4981813;28;20465;-70
2021/03/09 07:07:15;;;;;;;50.70;29.02;;;5.10;99.90;;;;;;4975558;28;20038;-70
2021/03/09 07:09:53;;;;;;;44.53;26.88;;;5.20;99.90;;;;;;4985589;28;20030;-70
2021/03/09 07:12:19;;;;;;;47.60;26.60;;;5.10;99.90;;;;;;4980696;28;20544;-70
2021/03/09 07:14:46;;;;;;;45.35;27.58;;;5.10;99.90;;;;;;4982095;28;20118;-70
2021/03/09 07:17:13;;;;;;;48.80;26.85;;;5.10;99.90;;;;;;4981827;28;20418;-70
2021/03/09 07:19:44;;;;;;;44.33;27.40;;;5.10;99.90;;;;;;4982992;28;20038;-75
2021/03/09 07:22:11;;;;;;;49.53;27.90;;;5.00;99.90;;;;;;4984563;28;20116;-70
2021/03/09 07:24:43;;;;;;;43.92;27.10;;;5.10;99.90;;;;;;4982370;28;20281;-76
2021/03/09 07:27:15;;;;;;;45.60;27.35;;;5.10;99.90;;;;;;4980085;28;20401;-71
2021/03/09 07:29:48;;;;;;;47.97;24.95;;;5.00;99.90;;;;;;4980071;28;20031;-71
2021/03/09 07:32:16;;;;;;;52.90;27.33;;;5.00;99.90;;;;;;4982737;28;20104;-71
2021/03/09 07:34:43;;;;;;;43.53;25.92;;;5.00;99.90;;;;;;4978981;28;20034;-71
2021/03/09 07:37:10;;;;;;;46.40;28.23;;;5.00;99.90;;;;;;4984569;28;20031;-75
2021/03/09 07:39:38;;;;;;;45.95;26.77;;;5.10;99.90;;;;;;4981176;28;20079;-71
2021/03/09 07:42:05;;;;;;;47.38;27.85;;;5.10;99.90;;;;;;4979314;28;20146;-71
2021/03/09 07:44:31;;;;;;;42.40;27.08;;;5.10;99.90;;;;;;4977210;28;20525;-71
2021/03/09 07:46:59;;;;;;;45.08;28.70;;;5.10;99.90;;;;;;4980308;28;20541;-71
2021/03/09 07:49:25;;;;;;;53.22;29.50;;;5.10;99.90;;;;;;4982965;28;20487;-71
2021/03/09 07:52:16;;;;;;;58.38;25.88;;;5.10;99.90;;;;;;4978266;28;20030;-71
2021/03/09 07:55:03;;;;;;;40.58;26.48;;;5.20;99.90;;;;;;4979491;28;20046;-71
2021/03/09 07:57:30;;;;;;;45.75;28.05;;;5.30;99.90;;;;;;4981747;28;20049;-71
2021/03/09 08:00:07;;;;;;;40.75;26.48;;;5.30;99.90;;;;;;4981304;28;20114;-71
2021/03/09 08:02:51;;;;;;;41.30;25.50;;;5.40;99.90;;;;;;4980349;28;20452;-71
2021/03/09 08:05:21;;;;;;;47.40;25.35;;;5.40;99.90;;;;;;4984438;28;20038;-71
2021/03/09 08:07:49;;;;;;;44.65;26.48;;;5.50;99.90;;;;;;4980195;28;20040;-70
2021/03/09 08:10:32;;;;;;;48.72;25.55;;;5.60;99.90;;;;;;4979169;28;20219;-70
2021/03/09 08:13:07;;;;;;;51.42;25.88;;;5.50;99.90;;;;;;4981135;28;20038;-70
2021/03/09 08:15:39;;;;;;;44.25;25.00;;;5.50;99.90;;;;;;4978774;28;20351;-70
2021/03/09 08:18:17;;;;;;;39.88;25.02;;;5.50;99.90;;;;;;4979243;28;20157;-70
2021/03/09 08:20:59;;;;;;;36.17;24.92;;;5.60;99.90;;;;;;4975179;28;20138;-70
2021/03/09 08:23:48;;;;;;;37.57;26.07;;;5.60;99.90;;;;;;4975705;28;20030;-70
2021/03/09 08:26:13;;;;;;;37.72;25.58;;;5.70;99.90;;;;;;4972037;28;20660;-70
2021/03/09 08:28:41;;;;;;;41.05;24.77;;;5.70;99.90;;;;;;4984925;28;20019;-70
2021/03/09 08:31:10;;;;;;;34.53;22.80;;;5.80;99.90;;;;;;4981336;28;20049;-75
2021/03/09 08:33:37;;;;;;;40.63;24.10;;;5.80;99.90;;;;;;4977149;28;20391;-70
2021/03/09 08:36:31;;;;;;;41.28;26.45;;;5.90;99.90;;;;;;4975453;28;20039;-70
2021/03/09 08:39:12;;;;;;;37.10;24.45;;;6.00;99.90;;;;;;4978754;28;20109;-75
2021/03/09 08:41:38;;;;;;;43.58;26.08;;;6.10;99.90;;;;;;4979608;28;20429;-70
2021/03/09 08:46:55;;;;;;;37.83;25.00;;;6.00;99.90;;;;;;4980861;28;20050;-70
2021/03/09 08:49:36;;;;;;;44.80;26.67;;;6.00;99.90;;;;;;4979243;28;20520;-70
2021/03/09 08:52:03;;;;;;;37.08;25.17;;;6.00;99.90;;;;;;4978521;28;20039;-75
2021/03/09 08:54:31;;;;;;;43.20;26.80;;;6.10;99.90;;;;;;4980843;28;20065;-70
2021/03/09 08:57:03;;;;;;;44.53;27.45;;;6.20;99.90;;;;;;4980956;28;20080;-70
2021/03/09 08:59:31;;;;;;;29.52;19.77;;;6.40;99.90;;;;;;4982045;28;20041;-70
2021/03/09 09:02:10;;;;;;;40.85;26.08;;;6.30;99.90;;;;;;4979374;28;20484;-70
2021/03/09 09:04:37;;;;;;;38.67;25.70;;;6.20;99.90;;;;;;4979148;28;20031;-70
2021/03/09 09:07:26;;;;;;;40.75;26.33;;;6.10;99.90;;;;;;4982392;28;20034;-70
2021/03/09 09:10:08;;;;;;;41.00;26.25;;;6.20;99.90;;;;;;4979711;28;20037;-71
2021/03/09 09:12:35;;;;;;;42.70;28.23;;;6.40;99.90;;;;;;4977456;28;20420;-70
2021/03/09 09:15:20;;;;;;;42.03;26.30;;;6.50;99.90;;;;;;4980861;28;20410;-71
2021/03/09 09:18:09;;;;;;;39.72;26.35;;;6.70;99.90;;;;;;4977595;28;20031;-76
2021/03/09 09:20:37;;;;;;;40.22;26.20;;;6.90;99.90;;;;;;4971925;28;20060;-71
2021/03/09 09:23:11;;;;;;;36.15;26.75;;;6.90;99.90;;;;;;4978405;28;20142;-76
2021/03/09 09:25:42;;;;;;;42.28;26.27;;;6.80;99.90;;;;;;4979957;28;20042;-71
2021/03/09 09:28:08;;;;;;;38.17;24.85;;;7.00;99.90;;;;;;4977511;28;20034;-71
2021/03/09 09:30:40;;;;;;;37.70;27.08;;;7.30;99.90;;;;;;4978460;28;20035;-71
2021/03/09 09:33:09;;;;;;;42.67;25.85;;;7.60;99.90;;;;;;4980428;28;20027;-71
2021/03/09 09:35:35;;;;;;;37.17;25.65;;;7.80;99.90;;;;;;4981325;28;20572;-71
2021/03/09 09:38:06;;;;;;;43.65;28.38;;;8.00;99.90;;;;;;4978896;28;20038;-71
2021/03/09 09:40:53;;;;;;;39.58;27.67;;;8.00;99.90;;;;;;4978839;28;20069;-71
2021/03/09 09:43:21;;;;;;;36.53;26.63;;;8.10;99.90;;;;;;4981320;28;20061;-71
2021/03/09 09:45:48;;;;;;;38.15;26.02;;;8.00;99.90;;;;;;4975105;28;20049;-71
2021/03/09 09:48:17;;;;;;;36.72;26.70;;;8.30;99.90;;;;;;4977667;28;20132;-71
2021/03/09 09:51:05;;;;;;;38.72;26.30;;;8.50;99.90;;;;;;4979905;28;20076;-71
2021/03/09 09:53:34;;;;;;;40.00;27.92;;;8.60;99.90;;;;;;4977636;28;20438;-76
2021/03/09 09:56:02;;;;;;;40.10;25.73;;;8.60;99.90;;;;;;4971647;28;20059;-72
2021/03/09 09:59:00;;;;;;;39.63;26.25;;;8.70;99.90;;;;;;4982558;28;20166;-71
2021/03/09 10:01:32;;;;;;;41.05;26.40;;;8.70;99.90;;;;;;4979791;28;20038;-76
2021/03/09 10:04:09;;;;;;;41.30;26.88;;;8.90;99.90;;;;;;4983297;28;20043;-71
2021/03/09 10:06:44;;;;;;;37.90;26.33;;;9.00;99.90;;;;;;4981440;28;20461;-71
2021/03/09 10:09:16;;;;;;;40.65;26.55;;;9.00;99.90;;;;;;4983616;28;20034;-71
2021/03/09 10:11:56;;;;;;;40.83;27.30;;;9.00;99.90;;;;;;4978542;28;20481;-71
2021/03/09 10:14:26;;;;;;;41.10;24.40;;;9.00;99.90;;;;;;4984504;28;20030;-71
2021/03/09 10:16:52;;;;;;;42.03;26.65;;;9.10;99.90;;;;;;4981781;28;20187;-71
2021/03/09 10:19:21;;;;;;;38.38;24.35;;;9.00;99.90;;;;;;4982835;28;20039;-71
2021/03/09 10:21:53;;;;;;;35.97;26.35;;;8.80;99.90;;;;;;4985634;28;20031;-71
2021/03/09 10:24:29;;;;;;;33.88;21.63;;;8.80;99.90;;;;;;4984598;28;20034;-71
2021/03/09 10:26:55;;;;;;;35.63;23.80;;;9.30;99.90;;;;;;4982261;28;20410;-71
2021/03/09 10:29:31;;;;;;;36.13;22.95;;;9.30;99.90;;;;;;4973772;28;20035;-71
2021/03/09 10:31:59;;;;;;;39.17;22.48;;;9.30;99.90;;;;;;4980193;28;20038;-71
2021/03/09 10:34:39;;;;;;;35.97;22.70;;;9.30;99.90;;;;;;4983447;28;20034;-71
2021/03/09 10:37:15;;;;;;;36.47;23.67;;;9.30;99.90;;;;;;4983423;28;20350;-71
2021/03/09 10:39:58;;;;;;;35.30;23.70;;;9.30;99.90;;;;;;4974783;28;20487;-71
2021/03/09 10:42:39;;;;;;;40.15;25.50;;;9.20;99.90;;;;;;4982438;28;20060;-71
2021/03/09 10:45:20;;;;;;;41.47;25.80;;;9.10;99.90;;;;;;4983945;28;20043;-71
2021/03/09 10:47:54;;;;;;;40.85;23.13;;;9.30;99.90;;;;;;4979145;28;20036;-71
2021/03/09 10:50:24;;;;;;;39.38;24.52;;;9.10;99.90;;;;;;4975297;28;20097;-71
2021/03/09 10:52:50;;;;;;;32.50;22.52;;;9.20;99.90;;;;;;4982776;28;20434;-76
2021/03/09 10:55:16;;;;;;;37.17;23.42;;;9.20;99.90;;;;;;4980498;28;20054;-71
2021/03/09 10:57:42;;;;;;;40.80;24.45;;;9.10;99.90;;;;;;4979546;28;20468;-76
2021/03/09 11:00:10;;;;;;;34.95;24.10;;;9.20;99.90;;;;;;4982814;28;20041;-71
2021/03/09 11:02:36;;;;;;;32.63;20.95;;;9.20;99.90;;;;;;4979703;28;20030;-71
2021/03/09 11:05:03;;;;;;;36.08;22.35;;;9.10;99.90;;;;;;4984103;28;20043;-76
2021/03/09 11:07:29;;;;;;;33.75;22.33;;;9.10;99.90;;;;;;4978120;28;20070;-71
2021/03/09 11:09:54;;;;;;;32.20;19.85;;;9.40;99.90;;;;;;4980213;28;20050;-72
2021/03/09 11:12:20;;;;;;;30.38;21.08;;;9.20;99.90;;;;;;4978028;28;20037;-71
2021/03/09 11:14:46;;;;;;;29.92;19.77;;;9.50;99.90;;;;;;4982021;28;20034;-71
2021/03/09 11:17:11;;;;;;;33.63;19.40;;;9.70;99.90;;;;;;4981854;28;20038;-71
2021/03/09 11:19:37;;;;;;;28.73;20.08;;;9.70;99.90;;;;;;4981077;28;20593;-71
2021/03/09 11:22:03;;;;;;;33.70;20.65;;;9.80;99.90;;;;;;4983034;28;20039;-71
2021/03/09 11:24:28;;;;;;;35.03;21.02;;;10.00;99.90;;;;;;4987197;28;20504;-71
2021/03/09 11:27:01;;;;;;;33.55;22.02;;;10.00;99.90;;;;;;4982913;28;20525;-75
2021/03/09 11:29:31;;;;;;;32.33;21.42;;;9.80;99.90;;;;;;4975358;28;20069;-71
2021/03/09 11:31:58;;;;;;;30.77;18.35;;;9.80;99.90;;;;;;4981041;28;20026;-71
2021/03/09 11:34:24;;;;;;;30.77;17.52;;;9.80;99.90;;;;;;4973158;28;20034;-71
2021/03/09 11:36:51;;;;;;;27.38;16.75;;;9.80;99.90;;;;;;4982970;28;20034;-76
2021/03/09 11:39:17;;;;;;;24.08;14.32;;;9.80;99.80;;;;;;4979115;28;20553;-71
2021/03/09 11:41:43;;;;;;;25.25;14.68;;;9.80;98.20;;;;;;4981988;28;20064;-76
2021/03/09 11:44:09;;;;;;;28.13;13.45;;;10.00;97.00;;;;;;4981301;28;20034;-71
2021/03/09 11:46:36;;;;;;;20.33;11.73;;;10.10;95.10;;;;;;4978799;28;20030;-71
2021/03/09 11:49:02;;;;;;;19.13;11.00;;;10.20;94.60;;;;;;4979712;28;20038;-76
2021/03/09 11:51:28;;;;;;;31.75;12.38;;;10.30;93.10;;;;;;4980587;28;20084;-71
2021/03/09 11:53:53;;;;;;;19.55;10.73;;;10.30;92.10;;;;;;4980421;28;20036;-71
2021/03/09 11:56:19;;;;;;;19.23;10.20;;;10.10;87.40;;;;;;4977284;28;20058;-71
2021/03/09 11:58:45;;;;;;;15.50;8.40;;;10.50;87.80;;;;;;4983044;28;20031;-71
2021/03/09 12:01:11;;;;;;;13.77;8.82;;;10.60;79.20;;;;;;4973345;28;20531;-71
2021/03/09 12:03:37;;;;;;;18.15;9.55;;;10.70;78.50;;;;;;4982999;28;20046;-71
2021/03/09 12:06:02;;;;;;;17.35;9.52;;;10.60;77.70;;;;;;4976701;28;20041;-76
2021/03/09 12:08:28;;;;;;;17.08;10.25;;;10.70;77.80;;;;;;4985518;28;20505;-71
2021/03/09 12:10:54;;;;;;;13.50;8.43;;;10.80;79.20;;;;;;4983292;28;20430;-76
2021/03/09 12:13:19;;;;;;;15.75;10.02;;;10.80;79.60;;;;;;4979251;28;20030;-71
2021/03/09 12:15:45;;;;;;;18.58;8.80;;;10.70;79.10;;;;;;4983670;28;20071;-76
2021/03/09 12:18:10;;;;;;;10.63;5.88;;;10.90;76.40;;;;;;4976537;28;20038;-72
2021/03/09 12:20:36;;;;;;;12.52;5.75;;;11.00;72.80;;;;;;4981358;28;20470;-74
2021/03/09 12:23:02;;;;;;;14.35;6.05;;;11.30;68.60;;;;;;4975064;28;20065;-71
2021/03/09 12:25:27;;;;;;;13.48;7.63;;;11.30;68.20;;;;;;4977458;28;20675;-70
2021/03/09 12:27:53;;;;;;;14.95;9.13;;;11.50;71.00;;;;;;4979027;28;20360;-69
2021/03/09 12:30:19;;;;;;;18.77;9.07;;;11.50;70.10;;;;;;4981933;28;20065;-69
2021/03/09 12:32:45;;;;;;;14.68;7.00;;;11.40;71.70;;;;;;4981808;28;20062;-69
2021/03/09 12:35:12;;;;;;;13.57;7.22;;;11.10;72.10;;;;;;4979655;28;20068;-71
2021/03/09 12:37:39;;;;;;;13.23;7.53;;;11.10;67.70;;;;;;4978167;28;20391;-71
2021/03/09 12:40:05;;;;;;;17.52;7.88;;;11.00;67.80;;;;;;4975400;28;20049;-71
2021/03/09 12:42:31;;;;;;;19.25;7.90;;;11.10;66.40;;;;;;4979409;28;20030;-70
2021/03/09 12:44:56;;;;;;;15.07;7.07;;;11.00;67.00;;;;;;4980167;28;20038;-71
2021/03/09 12:47:22;;;;;;;13.20;6.82;;;11.20;68.30;;;;;;4978064;28;20026;-71
2021/03/09 12:49:48;;;;;;;13.23;7.60;;;11.10;66.80;;;;;;4973912;28;20026;-71